Time;durP1;ratioP1;P1;durP2;ratioP2;P2;SDS_P1;SDS_P2;PMS_P1;PMS_P2;Temp;Humidity;BMP_temperature;BMP_pressure;BME280_temperature;BME280_humidity;BME280_pressure;Samples;Min_cycle;Max_cycle;Signal;HPM_P1;HPM_P2
2023/12/17 00:01:18;;;;;;;9.52;5.60;;;5.10;99.90;;;;;;4998923;28;20080;-63
2023/12/17 00:03:44;;;;;;;12.95;6.28;;;5.10;99.90;;;;;;5016821;28;20022;-62
2023/12/17 00:06:09;;;;;;;11.15;5.95;;;5.20;99.90;;;;;;5016455;28;20181;-62
2023/12/17 00:08:35;;;;;;;9.73;5.68;;;5.20;99.90;;;;;;5016200;28;20430;-62
2023/12/17 00:11:00;;;;;;;8.18;5.65;;;5.20;99.90;;;;;;4998807;28;20057;-62
2023/12/17 00:13:26;;;;;;;9.27;5.80;;;5.20;99.90;;;;;;5016176;28;20507;-63
2023/12/17 00:15:52;;;;;;;8.85;5.70;;;5.30;99.90;;;;;;5016393;28;20068;-62
2023/12/17 00:18:18;;;;;;;10.43;5.93;;;5.30;99.90;;;;;;5016124;28;20372;-62
2023/12/17 00:20:44;;;;;;;9.07;5.57;;;5.30;99.90;;;;;;5015913;28;20387;-63
2023/12/17 00:23:10;;;;;;;9.63;6.32;;;5.30;99.90;;;;;;5016241;28;20030;-63
2023/12/17 00:25:35;;;;;;;9.73;6.03;;;5.30;99.90;;;;;;5015904;28;20026;-62
2023/12/17 00:28:01;;;;;;;9.38;5.50;;;5.30;99.90;;;;;;5015847;28;20157;-62
2023/12/17 00:30:27;;;;;;;12.43;5.88;;;5.20;99.90;;;;;;4998197;28;20026;-62
2023/12/17 00:32:52;;;;;;;9.38;4.90;;;5.30;99.90;;;;;;5015775;28;20030;-62
2023/12/17 00:35:18;;;;;;;9.35;5.20;;;5.30;99.90;;;;;;5015738;28;20030;-63
2023/12/17 00:37:44;;;;;;;13.77;5.72;;;5.30;99.90;;;;;;5015750;28;20021;-63
2023/12/17 00:40:10;;;;;;;10.73;5.35;;;5.30;99.90;;;;;;5015376;28;20025;-62
2023/12/17 00:42:35;;;;;;;9.13;5.75;;;5.30;99.90;;;;;;5015652;28;20030;-62
2023/12/17 00:45:01;;;;;;;10.48;5.45;;;5.20;99.90;;;;;;5015585;28;20022;-62
2023/12/17 00:47:27;;;;;;;9.18;5.38;;;5.20;99.90;;;;;;5015540;28;20025;-63
2023/12/17 00:49:53;;;;;;;10.85;5.22;;;5.20;99.90;;;;;;4997818;28;20434;-62
2023/12/17 00:52:22;;;;;;;9.88;5.95;;;5.20;99.90;;;;;;4997692;28;20050;-62
2023/12/17 00:54:48;;;;;;;10.38;5.25;;;5.10;99.90;;;;;;4998105;28;20080;-62
2023/12/17 00:57:14;;;;;;;7.78;5.63;;;5.20;99.90;;;;;;5015041;28;20030;-62
2023/12/17 00:59:39;;;;;;;10.60;6.00;;;5.20;99.90;;;;;;5015417;28;20034;-62
2023/12/17 01:02:06;;;;;;;13.18;6.18;;;5.30;99.90;;;;;;5015055;28;20411;-62
2023/12/17 01:04:32;;;;;;;11.27;5.93;;;5.30;99.90;;;;;;5015827;28;20032;-63
2023/12/17 01:06:58;;;;;;;12.75;6.35;;;5.20;99.90;;;;;;4996877;28;20033;-63
2023/12/17 01:09:23;;;;;;;12.57;6.22;;;5.20;99.90;;;;;;5015733;28;20030;-62
2023/12/17 01:11:49;;;;;;;11.18;6.05;;;5.10;99.90;;;;;;4997637;28;20076;-63
2023/12/17 01:14:15;;;;;;;13.45;6.97;;;5.10;99.90;;;;;;4997492;28;20029;-63
2023/12/17 01:16:40;;;;;;;12.02;6.30;;;5.10;99.90;;;;;;5014708;28;20026;-63
2023/12/17 01:19:06;;;;;;;12.00;6.93;;;5.10;99.90;;;;;;5014898;28;20021;-62
2023/12/17 01:21:32;;;;;;;12.48;6.88;;;5.10;99.90;;;;;;4997244;28;20038;-63
2023/12/17 01:23:58;;;;;;;13.18;6.85;;;5.10;99.90;;;;;;5014542;28;20037;-63
2023/12/17 01:26:26;;;;;;;12.88;7.28;;;5.10;99.90;;;;;;4997204;28;20485;-63
2023/12/17 01:28:58;;;;;;;12.05;7.32;;;5.20;99.90;;;;;;5014580;28;20438;-63
2023/12/17 01:31:24;;;;;;;12.52;7.18;;;5.20;99.90;;;;;;5014444;28;20064;-62
2023/12/17 01:33:49;;;;;;;12.65;7.45;;;5.20;99.90;;;;;;5014643;28;20030;-62
2023/12/17 01:36:15;;;;;;;12.13;6.55;;;5.20;99.90;;;;;;5014382;28;20124;-62
2023/12/17 01:38:40;;;;;;;10.80;6.63;;;5.30;99.90;;;;;;4996912;28;20076;-63
2023/12/17 01:41:09;;;;;;;15.20;7.43;;;5.20;99.90;;;;;;5014508;28;20097;-62
2023/12/17 01:43:35;;;;;;;12.63;6.93;;;5.20;99.90;;;;;;5014287;28;20386;-63
2023/12/17 01:46:01;;;;;;;11.13;6.18;;;5.20;99.90;;;;;;5014521;28;20108;-63
2023/12/17 01:48:27;;;;;;;8.77;6.38;;;5.20;99.90;;;;;;5014576;28;20076;-62
2023/12/17 01:50:54;;;;;;;10.52;6.20;;;5.20;99.90;;;;;;5014692;28;20088;-62
2023/12/17 01:53:20;;;;;;;12.43;6.50;;;5.20;99.90;;;;;;4997167;28;20053;-63
2023/12/17 01:55:47;;;;;;;12.88;6.65;;;5.10;99.90;;;;;;5014327;28;20029;-63
2023/12/17 01:58:15;;;;;;;10.30;5.68;;;5.10;99.90;;;;;;4996709;28;20026;-62
2023/12/17 02:00:41;;;;;;;11.47;5.83;;;5.10;99.90;;;;;;5013985;28;20463;-63
2023/12/17 02:03:07;;;;;;;8.55;5.70;;;5.10;99.90;;;;;;4996630;28;20121;-62
2023/12/17 02:05:34;;;;;;;9.70;5.43;;;5.10;99.90;;;;;;5014185;28;20030;-63
2023/12/17 02:08:03;;;;;;;10.27;5.90;;;5.10;99.90;;;;;;4996566;28;20430;-63
2023/12/17 02:10:30;;;;;;;9.88;6.40;;;5.10;99.90;;;;;;5014312;28;20030;-63
2023/12/17 02:12:58;;;;;;;8.75;5.90;;;5.10;99.90;;;;;;5013849;28;20084;-63
2023/12/17 02:15:24;;;;;;;10.27;6.50;;;5.10;99.90;;;;;;5014203;28;20032;-62
2023/12/17 02:17:50;;;;;;;9.88;6.00;;;5.00;99.90;;;;;;4997811;28;20033;-63
2023/12/17 02:20:15;;;;;;;12.05;5.88;;;5.00;99.90;;;;;;5016045;28;20034;-63
2023/12/17 02:22:42;;;;;;;8.60;5.35;;;5.00;99.90;;;;;;5015571;28;20025;-63
2023/12/17 02:25:09;;;;;;;7.88;5.13;;;5.00;99.90;;;;;;5015081;28;20482;-63
2023/12/17 02:27:34;;;;;;;8.73;5.13;;;5.00;99.90;;;;;;4996495;28;20077;-63
2023/12/17 02:30:00;;;;;;;10.95;5.43;;;5.10;99.90;;;;;;4996233;28;20034;-62
2023/12/17 02:32:26;;;;;;;8.55;5.45;;;5.00;99.90;;;;;;5014056;28;20064;-62
2023/12/17 02:34:52;;;;;;;8.68;5.20;;;5.10;99.90;;;;;;4996272;28;20109;-62
2023/12/17 02:37:18;;;;;;;10.32;4.95;;;5.10;99.90;;;;;;5013646;28;20026;-62
2023/12/17 02:39:44;;;;;;;10.00;5.15;;;5.20;99.90;;;;;;4996182;28;20033;-63
2023/12/17 02:42:09;;;;;;;7.70;5.10;;;5.10;99.90;;;;;;5013579;28;20472;-63
2023/12/17 02:44:35;;;;;;;8.93;4.68;;;5.10;99.90;;;;;;5013880;28;20022;-62
2023/12/17 02:47:01;;;;;;;9.93;5.03;;;5.10;99.90;;;;;;5014055;28;20415;-63
2023/12/17 02:49:27;;;;;;;8.00;4.55;;;5.10;99.90;;;;;;5013665;28;20475;-62
2023/12/17 02:51:53;;;;;;;7.20;4.50;;;5.10;99.90;;;;;;4995762;28;20188;-63
2023/12/17 02:54:19;;;;;;;7.07;4.88;;;5.10;99.90;;;;;;5013447;28;20112;-62
2023/12/17 02:56:45;;;;;;;7.18;4.20;;;5.20;99.90;;;;;;4996182;28;20123;-63
2023/12/17 02:59:13;;;;;;;9.32;5.25;;;5.10;99.90;;;;;;4996058;28;20372;-63
2023/12/17 03:01:43;;;;;;;9.55;4.63;;;5.10;99.90;;;;;;5013541;28;20080;-62
2023/12/17 03:04:10;;;;;;;6.78;4.57;;;5.20;99.90;;;;;;5013647;28;20026;-63
2023/12/17 03:06:37;;;;;;;10.25;5.30;;;5.20;99.90;;;;;;4996263;28;20025;-63
2023/12/17 03:09:02;;;;;;;7.70;4.50;;;5.10;99.90;;;;;;4996017;28;20084;-63
2023/12/17 03:11:28;;;;;;;8.63;4.50;;;5.10;99.90;;;;;;5013596;28;20030;-63
2023/12/17 03:13:54;;;;;;;7.30;4.35;;;5.20;99.90;;;;;;5013499;28;20464;-63
2023/12/17 03:16:20;;;;;;;7.38;4.20;;;5.20;99.90;;;;;;5013518;28;20030;-62
2023/12/17 03:18:46;;;;;;;5.72;4.25;;;5.10;99.90;;;;;;5013779;28;20535;-63
2023/12/17 03:21:12;;;;;;;8.52;4.47;;;5.10;99.90;;;;;;5013441;28;20049;-62
2023/12/17 03:23:37;;;;;;;6.35;4.25;;;5.10;99.90;;;;;;4995564;28;20058;-62
2023/12/17 03:26:03;;;;;;;7.55;4.43;;;5.20;99.90;;;;;;5013671;28;20057;-63
2023/12/17 03:28:29;;;;;;;6.20;4.15;;;5.20;99.90;;;;;;5013409;28;20029;-63
2023/12/17 03:30:55;;;;;;;5.55;3.95;;;5.20;99.90;;;;;;4998583;28;20399;-63
2023/12/17 03:33:21;;;;;;;6.47;4.00;;;5.20;99.90;;;;;;5016927;28;20022;-63
2023/12/17 03:35:47;;;;;;;6.53;3.97;;;5.20;99.90;;;;;;5016625;28;20463;-62
2023/12/17 03:38:13;;;;;;;7.72;4.05;;;5.20;99.90;;;;;;5016619;28;20034;-63
2023/12/17 03:40:39;;;;;;;6.45;4.18;;;5.20;99.90;;;;;;4999197;28;20029;-63
2023/12/17 03:43:06;;;;;;;11.68;4.07;;;5.20;99.90;;;;;;4999071;28;20120;-62
2023/12/17 03:45:33;;;;;;;5.93;3.60;;;5.10;99.90;;;;;;4999139;28;20080;-63
2023/12/17 03:47:59;;;;;;;6.90;3.88;;;5.10;99.90;;;;;;5016654;28;20069;-63
2023/12/17 03:50:25;;;;;;;8.75;5.10;;;5.10;99.90;;;;;;5016439;28;20042;-63
2023/12/17 03:52:52;;;;;;;6.95;3.90;;;5.10;99.90;;;;;;5017436;28;20057;-63
2023/12/17 03:55:18;;;;;;;5.43;3.78;;;5.10;99.90;;;;;;5016840;28;20062;-63
2023/12/17 03:57:46;;;;;;;7.53;3.78;;;5.10;99.90;;;;;;4998925;28;20053;-63
2023/12/17 04:00:12;;;;;;;5.15;3.30;;;5.10;99.90;;;;;;4998860;28;20038;-63
2023/12/17 04:02:38;;;;;;;6.60;4.13;;;5.10;99.90;;;;;;4998462;28;20089;-63
2023/12/17 04:05:04;;;;;;;6.07;3.10;;;5.10;99.90;;;;;;5016037;28;20029;-63
2023/12/17 04:07:30;;;;;;;5.15;3.30;;;5.10;99.90;;;;;;4999046;28;20026;-63
2023/12/17 04:10:03;;;;;;;7.15;3.60;;;5.10;99.90;;;;;;5015914;28;20560;-63
2023/12/17 04:12:29;;;;;;;5.05;3.40;;;5.10;99.90;;;;;;5016475;28;20037;-62
2023/12/17 04:14:54;;;;;;;5.60;3.45;;;5.10;99.90;;;;;;5015886;28;20030;-63
2023/12/17 04:17:20;;;;;;;5.47;3.65;;;5.10;99.90;;;;;;5015817;28;20030;-63
2023/12/17 04:19:46;;;;;;;5.32;3.42;;;5.10;99.90;;;;;;5015820;28;20498;-63
2023/12/17 04:22:11;;;;;;;6.30;3.63;;;5.10;99.90;;;;;;5015749;28;20415;-63
2023/12/17 04:24:37;;;;;;;6.28;4.32;;;5.10;99.90;;;;;;4998448;28;20029;-63
2023/12/17 04:27:03;;;;;;;9.68;3.95;;;5.10;99.90;;;;;;4998350;28;20116;-63
2023/12/17 04:29:29;;;;;;;5.65;4.28;;;5.20;99.90;;;;;;5015819;28;20510;-63
2023/12/17 04:31:54;;;;;;;6.65;3.78;;;5.20;99.90;;;;;;5016098;28;20026;-63
2023/12/17 04:34:20;;;;;;;6.00;3.30;;;5.20;99.90;;;;;;5015802;28;20109;-63
2023/12/17 04:36:45;;;;;;;4.95;3.58;;;5.20;99.90;;;;;;5015999;28;20041;-63
2023/12/17 04:39:12;;;;;;;5.57;3.58;;;5.20;99.90;;;;;;4998317;28;20033;-63
2023/12/17 04:41:39;;;;;;;5.68;3.60;;;5.20;99.90;;;;;;5015510;28;20026;-63
2023/12/17 04:44:05;;;;;;;4.63;3.40;;;5.30;99.90;;;;;;5019154;28;20049;-64
2023/12/17 04:46:30;;;;;;;5.63;3.45;;;5.30;99.90;;;;;;5020180;28;20026;-63
2023/12/17 04:48:56;;;;;;;5.38;3.78;;;5.30;99.90;;;;;;5019919;28;20026;-64
2023/12/17 04:51:22;;;;;;;7.80;3.92;;;5.40;99.90;;;;;;5019246;28;20075;-65
2023/12/17 04:53:49;;;;;;;6.35;3.30;;;5.30;99.90;;;;;;5017126;28;20059;-64
2023/12/17 04:56:15;;;;;;;5.32;3.58;;;5.30;99.90;;;;;;5016912;28;20076;-63
2023/12/17 04:58:41;;;;;;;5.18;3.35;;;5.30;99.90;;;;;;5015065;28;20028;-63
2023/12/17 05:01:07;;;;;;;5.55;3.45;;;5.30;99.90;;;;;;4998095;28;20531;-63
2023/12/17 05:03:32;;;;;;;6.15;3.47;;;5.30;99.90;;;;;;5015242;28;20034;-63
2023/12/17 05:05:58;;;;;;;6.50;4.28;;;5.40;99.90;;;;;;4997669;28;20073;-63
2023/12/17 05:08:24;;;;;;;6.13;3.83;;;5.40;99.90;;;;;;4997772;28;20498;-63
2023/12/17 05:10:50;;;;;;;5.70;3.60;;;5.40;99.90;;;;;;5015642;28;20069;-66
2023/12/17 05:13:15;;;;;;;6.40;3.75;;;5.40;99.90;;;;;;5015692;28;20078;-64
2023/12/17 05:15:41;;;;;;;4.20;3.08;;;5.40;99.90;;;;;;4997794;28;20096;-63
2023/12/17 05:18:07;;;;;;;4.72;3.70;;;5.40;99.90;;;;;;5015071;28;20034;-63
2023/12/17 05:20:33;;;;;;;6.13;4.03;;;5.40;99.90;;;;;;5015522;28;20033;-63
2023/12/17 05:22:58;;;;;;;5.95;3.47;;;5.40;99.90;;;;;;4997598;28;20521;-63
2023/12/17 05:25:24;;;;;;;6.20;3.80;;;5.40;99.90;;;;;;5015078;28;20022;-63
2023/12/17 05:27:49;;;;;;;5.55;3.63;;;5.50;99.90;;;;;;4997242;28;20101;-63
2023/12/17 05:30:15;;;;;;;5.63;3.60;;;5.50;99.90;;;;;;5014793;28;20037;-64
2023/12/17 05:32:41;;;;;;;5.05;3.35;;;5.40;99.90;;;;;;5014701;28;20034;-63
2023/12/17 05:35:07;;;;;;;5.50;3.45;;;5.50;99.90;;;;;;5014623;28;20041;-63
2023/12/17 05:37:33;;;;;;;6.00;3.15;;;5.50;99.90;;;;;;5024622;28;20042;-63
2023/12/17 05:39:58;;;;;;;5.60;3.63;;;5.50;99.90;;;;;;5034577;28;20030;-63
2023/12/17 05:42:24;;;;;;;5.10;3.50;;;5.50;99.90;;;;;;5017983;28;20487;-63
2023/12/17 05:44:50;;;;;;;5.25;3.08;;;5.50;99.90;;;;;;5014592;28;20029;-63
2023/12/17 05:47:16;;;;;;;5.05;3.22;;;5.50;99.90;;;;;;4996883;28;20026;-63
2023/12/17 05:49:42;;;;;;;4.43;2.60;;;5.50;99.90;;;;;;5014316;28;20037;-63
2023/12/17 05:52:08;;;;;;;3.78;2.83;;;5.50;99.90;;;;;;5011567;28;20470;-63
2023/12/17 05:54:33;;;;;;;4.75;2.80;;;5.50;99.90;;;;;;5034121;28;20116;-63
2023/12/17 05:57:00;;;;;;;4.72;3.13;;;5.50;99.90;;;;;;5016385;28;20446;-63
2023/12/17 05:59:25;;;;;;;3.92;2.88;;;5.60;99.90;;;;;;5016297;28;20478;-63
2023/12/17 06:01:51;;;;;;;2.50;2.00;;;5.60;99.90;;;;;;5034060;28;20029;-63
2023/12/17 06:04:17;;;;;;;3.80;2.33;;;5.60;99.90;;;;;;5033685;28;20028;-63
2023/12/17 06:06:42;;;;;;;3.83;2.30;;;5.60;99.90;;;;;;5034216;28;20030;-63
2023/12/17 06:09:09;;;;;;;4.05;2.70;;;5.60;99.90;;;;;;5019356;28;20026;-63
2023/12/17 06:11:35;;;;;;;5.25;2.50;;;5.60;99.90;;;;;;5026210;28;20044;-63
2023/12/17 06:14:02;;;;;;;6.13;2.55;;;5.60;99.90;;;;;;5014579;28;20025;-63
2023/12/17 06:16:27;;;;;;;4.30;1.95;;;5.60;99.90;;;;;;5005078;28;20064;-63
2023/12/17 06:18:53;;;;;;;4.32;1.88;;;5.50;99.90;;;;;;5034521;28;20083;-63
2023/12/17 06:21:22;;;;;;;3.67;2.03;;;5.60;99.90;;;;;;5016351;28;20029;-63
2023/12/17 06:23:47;;;;;;;2.65;1.67;;;5.60;99.90;;;;;;5016320;28;20025;-63
2023/12/17 06:26:13;;;;;;;3.17;1.73;;;5.60;99.90;;;;;;5024539;28;20079;-63
2023/12/17 06:28:39;;;;;;;2.58;1.75;;;5.60;99.90;;;;;;5018945;28;20101;-63
2023/12/17 06:31:04;;;;;;;4.93;2.00;;;5.60;99.90;;;;;;5012426;28;20034;-63
2023/12/17 06:33:30;;;;;;;2.63;1.60;;;5.60;99.90;;;;;;5033402;28;20466;-63
2023/12/17 06:35:55;;;;;;;1.63;1.50;;;5.60;99.90;;;;;;5015988;28;20029;-63
2023/12/17 06:38:21;;;;;;;2.53;1.85;;;5.60;99.90;;;;;;5015662;28;20025;-63
2023/12/17 06:40:47;;;;;;;2.80;1.80;;;5.50;99.90;;;;;;5010653;28;20029;-63
2023/12/17 06:43:12;;;;;;;2.20;1.77;;;5.50;99.90;;;;;;5027293;28;20029;-63
2023/12/17 06:45:38;;;;;;;2.80;1.50;;;5.50;99.90;;;;;;5033592;28;20045;-63
2023/12/17 06:48:04;;;;;;;2.55;1.48;;;5.50;99.90;;;;;;4998937;28;20033;-63
2023/12/17 06:50:30;;;;;;;2.20;1.35;;;5.50;99.90;;;;;;5013619;28;20034;-63
2023/12/17 06:52:55;;;;;;;2.72;1.60;;;5.50;99.90;;;;;;5002436;28;20130;-63
2023/12/17 06:55:21;;;;;;;3.83;1.83;;;5.60;99.90;;;;;;5015765;28;20025;-63
2023/12/17 06:57:47;;;;;;;2.17;1.70;;;5.60;99.90;;;;;;5030680;28;20459;-63
2023/12/17 07:00:14;;;;;;;2.85;1.80;;;5.70;99.90;;;;;;5022944;28;20099;-63
2023/12/17 07:02:41;;;;;;;3.25;1.60;;;5.70;99.90;;;;;;5033431;28;20061;-63
2023/12/17 07:05:08;;;;;;;3.38;1.70;;;5.70;99.90;;;;;;5017263;28;20356;-63
2023/12/17 07:07:34;;;;;;;2.63;1.80;;;5.80;99.90;;;;;;5019440;28;20025;-63
2023/12/17 07:10:00;;;;;;;2.70;1.55;;;5.70;99.90;;;;;;5037644;28;20383;-63
2023/12/17 07:12:25;;;;;;;2.42;1.67;;;5.70;99.90;;;;;;5037399;28;20033;-63
2023/12/17 07:14:51;;;;;;;1.98;1.48;;;5.80;99.90;;;;;;5019301;28;20060;-63
2023/12/17 07:17:16;;;;;;;2.10;1.33;;;5.70;99.90;;;;;;5037278;28;20025;-63
2023/12/17 07:19:42;;;;;;;2.20;1.58;;;5.80;99.90;;;;;;5037223;28;20033;-63
2023/12/17 07:22:08;;;;;;;2.35;1.40;;;5.80;99.90;;;;;;5019196;28;20026;-64
2023/12/17 07:24:34;;;;;;;2.05;1.25;;;5.80;99.90;;;;;;5037233;28;20116;-63
2023/12/17 07:26:59;;;;;;;7.32;3.15;;;5.90;99.90;;;;;;5036820;28;20028;-63
2023/12/17 07:29:26;;;;;;;4.45;2.40;;;5.90;99.90;;;;;;5018947;28;20022;-63
2023/12/17 07:31:51;;;;;;;2.63;1.77;;;5.90;99.90;;;;;;5018932;28;20041;-63
2023/12/17 07:34:17;;;;;;;1.98;1.60;;;6.00;99.90;;;;;;5019193;28;20025;-63
2023/12/17 07:36:43;;;;;;;2.80;1.55;;;6.00;99.90;;;;;;5019742;28;20076;-62
2023/12/17 07:39:08;;;;;;;2.28;1.40;;;6.00;99.90;;;;;;5037930;28;20471;-64
2023/12/17 07:41:34;;;;;;;2.15;1.70;;;6.10;99.90;;;;;;5019692;28;20390;-63
2023/12/17 07:43:59;;;;;;;3.17;1.77;;;6.00;99.90;;;;;;5036777;28;20455;-64
2023/12/17 07:46:25;;;;;;;4.40;2.30;;;6.00;99.90;;;;;;5019114;28;20167;-64
2023/12/17 07:48:51;;;;;;;4.50;1.92;;;6.10;99.90;;;;;;5018720;28;20022;-63
2023/12/17 07:51:16;;;;;;;3.38;2.20;;;6.10;99.90;;;;;;5036175;28;20054;-64
2023/12/17 07:53:42;;;;;;;2.13;1.55;;;6.20;99.90;;;;;;5036629;28;20025;-64
2023/12/17 07:56:08;;;;;;;1.95;1.52;;;6.20;99.90;;;;;;5018457;28;20525;-65
2023/12/17 07:58:34;;;;;;;2.47;1.67;;;6.30;99.90;;;;;;5036318;28;20040;-64
2023/12/17 08:01:00;;;;;;;1.88;1.67;;;6.40;99.90;;;;;;5036207;28;20466;-64
2023/12/17 08:03:25;;;;;;;4.57;1.55;;;6.40;99.90;;;;;;5018477;28;20036;-64
2023/12/17 08:05:52;;;;;;;1.83;1.40;;;6.40;99.90;;;;;;5018828;28;20029;-65
2023/12/17 08:08:18;;;;;;;3.13;1.77;;;6.50;99.90;;;;;;5036495;28;20026;-64
2023/12/17 08:10:44;;;;;;;3.25;1.80;;;6.60;99.90;;;;;;5035955;28;20030;-64
2023/12/17 08:13:10;;;;;;;4.13;2.00;;;6.60;99.90;;;;;;5035957;28;20099;-64
2023/12/17 08:15:36;;;;;;;7.10;2.20;;;6.70;99.90;;;;;;5035144;28;20116;-63
2023/12/17 08:18:02;;;;;;;3.17;1.38;;;6.80;99.90;;;;;;5035934;28;20022;-63
2023/12/17 08:20:27;;;;;;;2.60;1.63;;;7.00;99.90;;;;;;5035896;28;20025;-64
2023/12/17 08:22:53;;;;;;;2.05;1.23;;;7.10;99.90;;;;;;5035591;28;20029;-66
2023/12/17 08:25:19;;;;;;;2.90;1.27;;;7.20;99.90;;;;;;5018011;28;20067;-64
2023/12/17 08:27:44;;;;;;;2.38;1.38;;;7.40;99.90;;;;;;5035487;28;20390;-65
2023/12/17 08:30:11;;;;;;;2.67;1.20;;;7.80;99.90;;;;;;5035849;28;20108;-64
2023/12/17 08:32:36;;;;;;;2.30;1.00;;;8.20;99.90;;;;;;5018036;28;20080;-65
2023/12/17 08:35:02;;;;;;;1.55;1.33;;;8.50;99.90;;;;;;5035655;28;20382;-64
2023/12/17 08:37:29;;;;;;;2.20;1.00;;;8.90;99.90;;;;;;5035541;28;20047;-64
2023/12/17 08:39:56;;;;;;;1.60;1.17;;;9.30;99.90;;;;;;5017926;28;20029;-63
2023/12/17 08:42:22;;;;;;;1.88;1.35;;;9.40;99.50;;;;;;5017826;28;20364;-63
2023/12/17 08:44:49;;;;;;;1.80;1.02;;;9.70;98.70;;;;;;5033422;28;20117;-64
2023/12/17 08:47:15;;;;;;;3.58;1.27;;;9.80;98.10;;;;;;5035393;28;20025;-63
2023/12/17 08:49:41;;;;;;;1.48;1.10;;;9.90;97.50;;;;;;5035324;28;20057;-63
2023/12/17 08:52:07;;;;;;;1.85;0.85;;;10.10;96.80;;;;;;5017372;28;20077;-64
2023/12/17 08:54:33;;;;;;;2.17;0.77;;;10.10;96.80;;;;;;5034920;28;20481;-63
2023/12/17 08:56:58;;;;;;;1.27;0.90;;;10.20;96.10;;;;;;5035159;28;20029;-63
2023/12/17 08:59:24;;;;;;;1.35;0.90;;;10.50;95.80;;;;;;5017523;28;20379;-63
2023/12/17 09:01:50;;;;;;;1.17;0.80;;;10.80;94.80;;;;;;5017307;28;20057;-63
2023/12/17 09:04:17;;;;;;;2.40;0.70;;;11.00;94.10;;;;;;5017515;28;20512;-63
2023/12/17 09:06:47;;;;;;;1.10;1.02;;;11.30;93.40;;;;;;5034939;28;20026;-64
2023/12/17 09:09:14;;;;;;;0.70;0.70;;;11.40;92.80;;;;;;5034893;28;20061;-64
2023/12/17 09:11:39;;;;;;;1.05;0.93;;;11.50;92.60;;;;;;5017013;28;20040;-63
2023/12/17 09:14:07;;;;;;;1.13;0.75;;;11.60;91.70;;;;;;5017676;28;20025;-63
2023/12/17 09:16:33;;;;;;;1.65;1.10;;;11.50;91.90;;;;;;5017062;28;20124;-63
2023/12/17 09:18:59;;;;;;;1.88;1.00;;;11.80;91.20;;;;;;5034709;28;20053;-63
2023/12/17 09:21:25;;;;;;;2.10;0.90;;;12.10;90.20;;;;;;5034799;28;20029;-63
2023/12/17 09:23:51;;;;;;;0.88;0.70;;;12.00;90.40;;;;;;5034686;28;20030;-64
2023/12/17 09:26:18;;;;;;;1.05;0.95;;;12.60;89.40;;;;;;5034243;28;20033;-63
2023/12/17 09:28:44;;;;;;;1.17;1.00;;;12.60;86.90;;;;;;5033866;28;20052;-63
2023/12/17 09:31:11;;;;;;;0.93;0.70;;;12.60;87.30;;;;;;5017550;28;20188;-64
2023/12/17 09:33:37;;;;;;;0.52;0.50;;;12.60;86.20;;;;;;5034646;28;20033;-63
2023/12/17 09:36:05;;;;;;;1.20;0.90;;;12.60;86.00;;;;;;5017344;28;20045;-63
2023/12/17 09:38:30;;;;;;;2.25;0.90;;;12.40;85.40;;;;;;5017066;28;20368;-63
2023/12/17 09:40:56;;;;;;;0.70;0.70;;;12.20;85.60;;;;;;5034293;28;20037;-63
2023/12/17 09:43:24;;;;;;;1.20;0.80;;;12.10;86.10;;;;;;5016493;28;20088;-63
2023/12/17 09:45:51;;;;;;;1.00;0.90;;;12.30;86.00;;;;;;5016885;28;20382;-63
2023/12/17 09:48:18;;;;;;;1.73;0.60;;;12.40;84.70;;;;;;5034271;28;20052;-62
2023/12/17 09:50:44;;;;;;;1.75;0.82;;;12.40;84.40;;;;;;5034086;28;20033;-64
2023/12/17 09:53:10;;;;;;;0.70;0.70;;;12.30;84.10;;;;;;5034695;28;20040;-64
2023/12/17 09:55:37;;;;;;;4.68;2.55;;;11.90;84.80;;;;;;5034123;28;20021;-63
2023/12/17 09:58:04;;;;;;;0.93;0.80;;;11.80;85.60;;;;;;5034136;28;20033;-57
2023/12/17 10:00:31;;;;;;;2.65;2.45;;;11.70;90.70;;;;;;5034254;28;20025;-56
2023/12/17 10:03:04;;;;;;;0.68;0.52;;;12.00;90.20;;;;;;5034009;28;20029;-57
2023/12/17 10:05:30;;;;;;;1.10;0.70;;;12.10;87.00;;;;;;5016705;28;20091;-64
2023/12/17 10:07:56;;;;;;;1.13;0.70;;;11.70;84.30;;;;;;5033574;28;20478;-63
2023/12/17 10:10:22;;;;;;;0.60;0.60;;;11.50;84.90;;;;;;5034110;28;20056;-64
2023/12/17 10:12:48;;;;;;;0.45;0.43;;;11.70;84.60;;;;;;5033615;28;20108;-64
2023/12/17 10:15:13;;;;;;;0.50;0.40;;;11.70;84.10;;;;;;5016074;28;20029;-64
2023/12/17 10:17:40;;;;;;;0.68;0.60;;;11.80;83.70;;;;;;5033516;28;20030;-64
2023/12/17 10:20:07;;;;;;;0.55;0.40;;;11.70;84.00;;;;;;5034028;28;20036;-65
2023/12/17 10:22:33;;;;;;;1.30;0.57;;;11.80;83.50;;;;;;5033719;28;20025;-63
2023/12/17 10:24:58;;;;;;;0.40;0.40;;;12.10;82.50;;;;;;5034072;28;20028;-64
2023/12/17 10:27:24;;;;;;;1.33;0.43;;;12.10;81.90;;;;;;5011065;28;20096;-64
2023/12/17 10:29:51;;;;;;;0.80;0.30;;;12.20;81.50;;;;;;5013817;28;20522;-64
2023/12/17 10:32:25;;;;;;;0.80;0.50;;;11.90;81.20;;;;;;4996854;28;20026;-63
2023/12/17 10:34:51;;;;;;;1.05;0.47;;;11.60;82.40;;;;;;5013923;28;20029;-64
2023/12/17 10:37:25;;;;;;;1.60;0.57;;;11.60;82.70;;;;;;4996506;28;20078;-63
2023/12/17 10:39:53;;;;;;;3.30;0.30;;;11.70;82.10;;;;;;5017065;28;20080;-64
2023/12/17 10:42:20;;;;;;;0.50;0.30;;;11.80;81.50;;;;;;5000224;28;20481;-64
2023/12/17 10:44:50;;;;;;;0.88;0.40;;;11.90;81.90;;;;;;5017871;28;20033;-65
2023/12/17 10:47:21;;;;;;;2.28;0.38;;;12.20;80.40;;;;;;5017632;28;20439;-65
2023/12/17 10:49:47;;;;;;;0.95;0.60;;;12.30;79.60;;;;;;5017790;28;20034;-65
2023/12/17 10:52:12;;;;;;;1.33;0.85;;;12.60;78.40;;;;;;5017707;28;20164;-65
2023/12/17 10:54:39;;;;;;;1.58;0.57;;;13.10;77.90;;;;;;5000704;28;20172;-64
2023/12/17 10:57:10;;;;;;;0.57;0.55;;;13.70;75.80;;;;;;5018070;28;20162;-65
2023/12/17 10:59:37;;;;;;;2.67;0.65;;;14.40;73.80;;;;;;5000206;28;20022;-65
2023/12/17 11:02:05;;;;;;;4.22;0.70;;;14.60;71.60;;;;;;4999921;28;20527;-65
2023/12/17 11:04:31;;;;;;;1.02;0.40;;;14.80;70.20;;;;;;5017231;28;20033;-65
2023/12/17 11:06:57;;;;;;;0.52;0.43;;;15.10;69.50;;;;;;4999741;28;20022;-65
2023/12/17 11:09:24;;;;;;;1.98;0.40;;;15.60;66.40;;;;;;5000132;28;20414;-65
2023/12/17 11:11:51;;;;;;;0.55;0.40;;;15.80;65.40;;;;;;5017202;28;20034;-65
2023/12/17 11:14:18;;;;;;;2.55;0.50;;;15.70;63.30;;;;;;4999342;28;20022;-65
2023/12/17 11:16:44;;;;;;;1.65;0.30;;;15.30;63.20;;;;;;5017051;28;20065;-65
2023/12/17 11:19:12;;;;;;;0.57;0.30;;;15.30;63.00;;;;;;5017239;28;20448;-65
2023/12/17 11:21:40;;;;;;;0.52;0.50;;;15.10;63.20;;;;;;4999505;28;20450;-65
2023/12/17 11:24:07;;;;;;;0.90;0.75;;;15.10;61.90;;;;;;5017037;28;20121;-65
2023/12/17 11:26:40;;;;;;;0.25;0.25;;;15.30;61.50;;;;;;5017230;28;20030;-65
2023/12/17 11:29:40;;;;;;;2.08;0.30;;;15.40;60.40;;;;;;4999503;28;20383;-64
2023/12/17 11:32:07;;;;;;;2.78;0.40;;;15.30;60.50;;;;;;5016895;28;20070;-64
2023/12/17 11:34:34;;;;;;;0.45;0.40;;;15.90;59.40;;;;;;5016784;28;20037;-65
2023/12/17 11:37:00;;;;;;;1.08;0.30;;;16.20;59.40;;;;;;5016823;28;20029;-65
2023/12/17 11:39:32;;;;;;;0.43;0.32;;;16.40;57.50;;;;;;5016728;28;20025;-65
2023/12/17 11:41:58;;;;;;;3.50;2.05;;;17.10;56.50;;;;;;5015520;28;20457;-65
2023/12/17 11:44:24;;;;;;;2.03;0.40;;;17.40;55.00;;;;;;4999108;28;20026;-65
2023/12/17 11:46:50;;;;;;;1.05;0.38;;;17.10;55.10;;;;;;5016556;28;20482;-65
2023/12/17 11:49:26;;;;;;;1.05;0.32;;;17.10;54.30;;;;;;5016259;28;20112;-65
2023/12/17 11:51:52;;;;;;;1.02;0.20;;;16.70;53.30;;;;;;4997746;28;20068;-65
2023/12/17 11:54:23;;;;;;;1.30;0.80;;;16.60;52.40;;;;;;5016451;28;20061;-65
2023/12/17 11:56:49;;;;;;;0.60;0.50;;;16.90;53.50;;;;;;4998620;28;20026;-65
2023/12/17 11:59:30;;;;;;;1.23;0.73;;;17.50;52.80;;;;;;5016330;28;20021;-65
2023/12/17 12:01:55;;;;;;;0.95;0.52;;;17.90;51.50;;;;;;5016431;28;20080;-65
2023/12/17 12:04:21;;;;;;;1.73;0.60;;;17.60;50.70;;;;;;4998874;28;20061;-65
2023/12/17 12:06:52;;;;;;;0.25;0.22;;;17.50;50.30;;;;;;5016084;28;20037;-63
2023/12/17 12:09:19;;;;;;;0.73;0.20;;;17.20;56.00;;;;;;5016149;28;20034;-62
2023/12/17 12:11:44;;;;;;;0.88;0.70;;;16.90;54.00;;;;;;4998257;28;20037;-62
2023/12/17 12:14:10;;;;;;;0.52;0.50;;;16.50;53.10;;;;;;5016133;28;20034;-62
2023/12/17 12:16:40;;;;;;;0.95;0.35;;;16.40;52.80;;;;;;5016245;28;20149;-64
2023/12/17 12:19:05;;;;;;;0.20;0.20;;;16.40;52.30;;;;;;5016089;28;20022;-61
2023/12/17 12:21:32;;;;;;;0.85;0.60;;;16.30;52.20;;;;;;5016266;28;20032;-61
2023/12/17 12:23:59;;;;;;;0.20;0.15;;;16.40;53.40;;;;;;4998377;28;20099;-61
2023/12/17 12:26:25;;;;;;;0.57;0.30;;;16.40;52.30;;;;;;4998333;28;20109;-61
2023/12/17 12:28:59;;;;;;;1.45;0.50;;;16.30;52.60;;;;;;5015825;28;20109;-61
2023/12/17 12:31:26;;;;;;;4.53;0.60;;;16.10;52.10;;;;;;5015720;28;20026;-63
2023/12/17 12:34:04;;;;;;;0.70;0.50;;;16.20;52.60;;;;;;5015751;28;20034;-63
2023/12/17 12:36:46;;;;;;;0.30;0.30;;;16.70;50.20;;;;;;5015968;28;20108;-64
2023/12/17 12:39:15;;;;;;;0.40;0.32;;;16.60;49.10;;;;;;5015094;28;20030;-64
2023/12/17 12:41:47;;;;;;;3.78;1.77;;;16.30;49.60;;;;;;4997997;28;20029;-64
2023/12/17 12:44:14;;;;;;;0.30;0.22;;;16.10;50.50;;;;;;5015541;28;20030;-64
2023/12/17 12:46:41;;;;;;;0.50;0.30;;;15.50;50.10;;;;;;4997710;28;20026;-66
2023/12/17 12:49:07;;;;;;;4.80;0.60;;;14.90;51.50;;;;;;5015541;28;20412;-66